Fsl New York — 9VBQ8 — position and weather

sailwx.info

Track history (hours):
 
Tides and Currents Weather Stations Pressure Air Temp Water Temp Dewpoint Dewpoint Depression Visibility Wind Speed Wind Dir Waves Ship Positions

Fsl New York

Last reported at 2016-May-02 03:31 UTC. Time now 2016-May-03 10:30 UTC.
Position N 27°40' W 082°36'.

Length 138 m; draft 6.1 m.

Type: Tanker. MMSI: 565174000.

Date/timePositionNaut miles runAvg speedWind from/ knotsBaromVisibWave heightAir tempDewpointWater temp
2016-May-02 03:31N 27°40' W 082°36'1212.2
2016-May-02 02:33N 27°49' W 082°27'6 6.0
2016-May-02 01:33N 27°54' W 082°25'0 0.3
2016-May-02 00:31N 27°54' W 082°25'0 0.0
2016-May-01 23:31N 27°54' W 082°25'0 0.0
2016-May-01 22:31N 27°54' W 082°25'0 0.0
2016-May-01 21:31N 27°54' W 082°25'0 0.0
2016-May-01 20:31N 27°54' W 082°25'0 0.0
2016-May-01 19:31N 27°54' W 082°25'0 0.0
2016-May-01 18:28N 27°54' W 082°25'0 0.0
2016-May-01 17:31N 27°54' W 082°25'0 0.0
2016-May-01 16:31N 27°54' W 082°25'0 0.0
2016-May-01 15:31N 27°54' W 082°25'0 0.0
2016-May-01 14:31N 27°54' W 082°25'0 0.0
2016-May-01 13:31N 27°54' W 082°25'0 0.0
2016-May-01 12:31N 27°54' W 082°25'0 0.0
2016-May-01 11:31N 27°54' W 082°25'0 0.0
2016-May-01 10:31N 27°54' W 082°25'0 0.0
2016-May-01 09:31N 27°54' W 082°25'0 0.0
2016-May-01 08:31N 27°54' W 082°25'0 0.0
2016-May-01 07:31N 27°54' W 082°25'0 0.0
2016-May-01 06:31N 27°54' W 082°25'0 0.0
2016-May-01 05:31N 27°54' W 082°25'0 0.0
2016-May-01 04:31N 27°54' W 082°25'0 0.0
2016-May-01 03:31N 27°54' W 082°25'0 0.0
2016-May-01 02:31N 27°54' W 082°25'0 0.0
2016-May-01 01:31N 27°54' W 082°25'0 0.0
2016-May-01 00:31N 27°54' W 082°25'0 0.0
2016-Apr-30 23:31N 27°54' W 082°25'0 0.0
2016-Apr-30 22:31N 27°54' W 082°25'0 0.0
2016-Apr-30 21:31N 27°54' W 082°25'0 0.0
2016-Apr-30 20:31N 27°54' W 082°25'0 0.0
2016-Apr-30 19:31N 27°54' W 082°25'0 0.0
2016-Apr-30 18:31N 27°54' W 082°25'0 0.0
2016-Apr-30 17:31N 27°54' W 082°25'0 0.0
2016-Apr-30 16:31N 27°54' W 082°25'0 0.0
2016-Apr-30 15:31N 27°54' W 082°25'0 0.0
2016-Apr-30 14:31N 27°54' W 082°25'0 0.0
2016-Apr-30 13:31N 27°54' W 082°25'0 0.0
2016-Apr-30 12:25N 27°54' W 082°25'0 0.0
2016-Apr-30 11:31N 27°54' W 082°25'0 0.0
2016-Apr-30 10:31N 27°54' W 082°25'0 0.0
2016-Apr-30 09:28N 27°54' W 082°25'0 0.0
2016-Apr-30 08:31N 27°54' W 082°25'0 0.0
2016-Apr-30 07:31N 27°54' W 082°25'0 0.0
2016-Apr-30 06:31N 27°54' W 082°25'0 0.0
2016-Apr-30 05:31N 27°54' W 082°25'3 2.9
2016-Apr-30 04:33N 27°52' W 082°27'1111.2
2016-Apr-30 03:33N 27°42' W 082°33'2611.1
2016-Apr-30 01:12N 27°35' W 083°01'5 5.2
2016-Apr-30 00:13N 27°36' W 083°07'224 4.6
2016-Apr-27 23:07N 25°49' W 079°26'712.3
2016-Apr-27 22:33N 25°56' W 079°25'1312.2
2016-Apr-27 21:29N 26°09' W 079°23'34811.6
2016-Apr-26 15:28N 31°52' W 080°32'1010.6
2016-Apr-26 14:33N 31°58' W 080°41'1110.9
2016-Apr-26 13:33N 32°02' W 080°53'8 8.4
2016-Apr-26 12:33N 32°05' W 081°02'2 1.4
2016-Apr-26 11:31N 32°05' W 081°04'0 0.0
2016-Apr-26 10:31N 32°05' W 081°04'0 0.0
2016-Apr-26 09:34N 32°05' W 081°04'0 0.0
2016-Apr-26 08:31N 32°05' W 081°04'0 0.0
2016-Apr-26 07:31N 32°05' W 081°04'0 0.0
2016-Apr-26 06:31N 32°05' W 081°04'0 0.0
2016-Apr-26 05:34N 32°05' W 081°04'0 0.0
2016-Apr-26 04:31N 32°05' W 081°04'0 0.0
2016-Apr-26 03:34N 32°05' W 081°04'0 0.0
2016-Apr-26 02:34N 32°05' W 081°04'0 0.0
2016-Apr-26 01:31N 32°05' W 081°04'0 0.0
2016-Apr-26 00:34N 32°05' W 081°04'0 0.0
2016-Apr-25 23:34N 32°05' W 081°04'0 0.0
2016-Apr-25 22:31N 32°05' W 081°04'0 0.0
2016-Apr-25 21:34N 32°05' W 081°04'0 0.0
2016-Apr-25 20:34N 32°05' W 081°04'0 0.0
2016-Apr-25 19:34N 32°05' W 081°04'0 0.0
2016-Apr-25 18:34N 32°05' W 081°04'0 0.0
2016-Apr-25 17:34N 32°05' W 081°04'3 3.3
2016-Apr-25 16:33N 32°06' W 081°00'1010.2
2016-Apr-25 15:33N 32°02' W 080°49'1010.3
2016-Apr-25 14:33N 31°58' W 080°38'1412.3
2016-Apr-25 13:27N 31°58' W 080°22'369 9.7
2016-Apr-23 23:29N 36°51' W 075°51'1212.7
2016-Apr-23 22:33N 36°60' W 076°02'5413.6
2016-Apr-23 18:34N 37°54' W 076°10'1613.6
2016-Apr-23 17:25N 38°09' W 076°15'4213.4
2016-Apr-23 14:18N 38°50' W 076°24'1013.3
2016-Apr-23 13:33N 38°60' W 076°23'1211.8
2016-Apr-23 12:33N 39°11' W 076°27'4 4.4
2016-Apr-23 11:33N 39°13' W 076°32'0 0.0
2016-Apr-22 20:09N 39°13' W 076°32'1 1.3
2016-Apr-22 19:33N 39°13' W 076°31'10 9.8
2016-Apr-22 18:33N 39°09' W 076°20'1211.7
2016-Apr-22 17:33N 39°19' W 076°13'1312.6
2016-Apr-22 16:33N 39°27' W 075°60'9 8.6
2016-Apr-22 15:33N 39°32' W 075°51'8 8.3
2016-Apr-22 14:33N 39°33' W 075°40'6 6.2
2016-Apr-22 13:33N 39°37' W 075°35'1111.4
2016-Apr-22 12:33N 39°47' W 075°27'1111.3
2016-Apr-22 11:33N 39°52' W 075°14'6 6.0
2016-Apr-22 10:33N 39°56' W 075°08'0 0.1
2016-Apr-22 09:31N 39°56' W 075°08'0 0.0
2016-Apr-22 08:31N 39°56' W 075°08'0 0.2
2016-Apr-22 07:31N 39°56' W 075°08'0 0.0
2016-Apr-22 06:31N 39°56' W 075°08'0 0.1
2016-Apr-22 05:31N 39°56' W 075°08'0 0.0
2016-Apr-22 04:31N 39°56' W 075°08'0 0.0
2016-Apr-22 03:31N 39°56' W 075°08'  
Track history (hours):
 
Tides and Currents Weather Stations Pressure Air Temp Water Temp Dewpoint Dewpoint Depression Visibility Wind Speed Wind Dir Waves Ship Positions

Fsl New York

Last reported at 2016-May-02 03:31 UTC. Time now 2016-May-03 10:30 UTC.
Position N 27°40' W 082°36'.

Length 138 m; draft 6.1 m.

Type: Tanker. MMSI: 565174000.

Date/timePositionNaut miles runAvg speedWind from/ knotsBaromVisibWave heightAir tempDewpointWater temp
2016-May-02 03:31N 27°40' W 082°36'1212.2
2016-May-02 02:33N 27°49' W 082°27'6 6.0
2016-May-02 01:33N 27°54' W 082°25'0 0.3
2016-May-02 00:31N 27°54' W 082°25'0 0.0
2016-May-01 23:31N 27°54' W 082°25'0 0.0
2016-May-01 22:31N 27°54' W 082°25'0 0.0
2016-May-01 21:31N 27°54' W 082°25'0 0.0
2016-May-01 20:31N 27°54' W 082°25'0 0.0
2016-May-01 19:31N 27°54' W 082°25'0 0.0
2016-May-01 18:28N 27°54' W 082°25'0 0.0
2016-May-01 17:31N 27°54' W 082°25'0 0.0
2016-May-01 16:31N 27°54' W 082°25'0 0.0
2016-May-01 15:31N 27°54' W 082°25'0 0.0
2016-May-01 14:31N 27°54' W 082°25'0 0.0
2016-May-01 13:31N 27°54' W 082°25'0 0.0
2016-May-01 12:31N 27°54' W 082°25'0 0.0
2016-May-01 11:31N 27°54' W 082°25'0 0.0
2016-May-01 10:31N 27°54' W 082°25'0 0.0
2016-May-01 09:31N 27°54' W 082°25'0 0.0
2016-May-01 08:31N 27°54' W 082°25'0 0.0
2016-May-01 07:31N 27°54' W 082°25'0 0.0
2016-May-01 06:31N 27°54' W 082°25'0 0.0
2016-May-01 05:31N 27°54' W 082°25'0 0.0
2016-May-01 04:31N 27°54' W 082°25'0 0.0
2016-May-01 03:31N 27°54' W 082°25'0 0.0
2016-May-01 02:31N 27°54' W 082°25'0 0.0
2016-May-01 01:31N 27°54' W 082°25'0 0.0
2016-May-01 00:31N 27°54' W 082°25'0 0.0
2016-Apr-30 23:31N 27°54' W 082°25'0 0.0
2016-Apr-30 22:31N 27°54' W 082°25'0 0.0
2016-Apr-30 21:31N 27°54' W 082°25'0 0.0
2016-Apr-30 20:31N 27°54' W 082°25'0 0.0
2016-Apr-30 19:31N 27°54' W 082°25'0 0.0
2016-Apr-30 18:31N 27°54' W 082°25'0 0.0
2016-Apr-30 17:31N 27°54' W 082°25'0 0.0
2016-Apr-30 16:31N 27°54' W 082°25'0 0.0
2016-Apr-30 15:31N 27°54' W 082°25'0 0.0
2016-Apr-30 14:31N 27°54' W 082°25'0 0.0
2016-Apr-30 13:31N 27°54' W 082°25'0 0.0
2016-Apr-30 12:25N 27°54' W 082°25'0 0.0
2016-Apr-30 11:31N 27°54' W 082°25'0 0.0
2016-Apr-30 10:31N 27°54' W 082°25'0 0.0
2016-Apr-30 09:28N 27°54' W 082°25'0 0.0
2016-Apr-30 08:31N 27°54' W 082°25'0 0.0
2016-Apr-30 07:31N 27°54' W 082°25'0 0.0
2016-Apr-30 06:31N 27°54' W 082°25'0 0.0
2016-Apr-30 05:31N 27°54' W 082°25'3 2.9
2016-Apr-30 04:33N 27°52' W 082°27'1111.2
2016-Apr-30 03:33N 27°42' W 082°33'2611.1
2016-Apr-30 01:12N 27°35' W 083°01'5 5.2
2016-Apr-30 00:13N 27°36' W 083°07'224 4.6
2016-Apr-27 23:07N 25°49' W 079°26'712.3
2016-Apr-27 22:33N 25°56' W 079°25'1312.2
2016-Apr-27 21:29N 26°09' W 079°23'34811.6
2016-Apr-26 15:28N 31°52' W 080°32'1010.6
2016-Apr-26 14:33N 31°58' W 080°41'1110.9
2016-Apr-26 13:33N 32°02' W 080°53'8 8.4
2016-Apr-26 12:33N 32°05' W 081°02'2 1.4
2016-Apr-26 11:31N 32°05' W 081°04'0 0.0
2016-Apr-26 10:31N 32°05' W 081°04'0 0.0
2016-Apr-26 09:34N 32°05' W 081°04'0 0.0
2016-Apr-26 08:31N 32°05' W 081°04'0 0.0
2016-Apr-26 07:31N 32°05' W 081°04'0 0.0
2016-Apr-26 06:31N 32°05' W 081°04'0 0.0
2016-Apr-26 05:34N 32°05' W 081°04'0 0.0
2016-Apr-26 04:31N 32°05' W 081°04'0 0.0
2016-Apr-26 03:34N 32°05' W 081°04'0 0.0
2016-Apr-26 02:34N 32°05' W 081°04'0 0.0
2016-Apr-26 01:31N 32°05' W 081°04'0 0.0
2016-Apr-26 00:34N 32°05' W 081°04'0 0.0
2016-Apr-25 23:34N 32°05' W 081°04'0 0.0
2016-Apr-25 22:31N 32°05' W 081°04'0 0.0
2016-Apr-25 21:34N 32°05' W 081°04'0 0.0
2016-Apr-25 20:34N 32°05' W 081°04'0 0.0
2016-Apr-25 19:34N 32°05' W 081°04'0 0.0
2016-Apr-25 18:34N 32°05' W 081°04'0 0.0
2016-Apr-25 17:34N 32°05' W 081°04'3 3.3
2016-Apr-25 16:33N 32°06' W 081°00'1010.2
2016-Apr-25 15:33N 32°02' W 080°49'1010.3
2016-Apr-25 14:33N 31°58' W 080°38'1412.3
2016-Apr-25 13:27N 31°58' W 080°22'369 9.7
2016-Apr-23 23:29N 36°51' W 075°51'1212.7
2016-Apr-23 22:33N 36°60' W 076°02'5413.6
2016-Apr-23 18:34N 37°54' W 076°10'1613.6
2016-Apr-23 17:25N 38°09' W 076°15'4213.4
2016-Apr-23 14:18N 38°50' W 076°24'1013.3
2016-Apr-23 13:33N 38°60' W 076°23'1211.8
2016-Apr-23 12:33N 39°11' W 076°27'4 4.4
2016-Apr-23 11:33N 39°13' W 076°32'0 0.0
2016-Apr-22 20:09N 39°13' W 076°32'1 1.3
2016-Apr-22 19:33N 39°13' W 076°31'10 9.8
2016-Apr-22 18:33N 39°09' W 076°20'1211.7
2016-Apr-22 17:33N 39°19' W 076°13'1312.6
2016-Apr-22 16:33N 39°27' W 075°60'9 8.6
2016-Apr-22 15:33N 39°32' W 075°51'8 8.3
2016-Apr-22 14:33N 39°33' W 075°40'6 6.2
2016-Apr-22 13:33N 39°37' W 075°35'1111.4
2016-Apr-22 12:33N 39°47' W 075°27'1111.3
2016-Apr-22 11:33N 39°52' W 075°14'6 6.0
2016-Apr-22 10:33N 39°56' W 075°08'0 0.1
2016-Apr-22 09:31N 39°56' W 075°08'0 0.0
2016-Apr-22 08:31N 39°56' W 075°08'0 0.2
2016-Apr-22 07:31N 39°56' W 075°08'0 0.0
2016-Apr-22 06:31N 39°56' W 075°08'0 0.1
2016-Apr-22 05:31N 39°56' W 075°08'0 0.0
2016-Apr-22 04:31N 39°56' W 075°08'0 0.0
2016-Apr-22 03:31N 39°56' W 075°08'  

Dump ship's entire track history